Eems Dollard — PBLV — position and weather

sailwx.info

Track history (hours):
 
Tides and Currents Weather Stations Pressure Air Temp Water Temp Dewpoint Dewpoint Depression Visibility Wind Speed Wind Dir Waves Ship Positions

Eems Dollard

Last reported at 2017-Dec-15 13:29 UTC. Time now 2017-Dec-15 13:47 UTC.
Position N 53°27' W 003°01'.

Length 89 m; draft 4.4 m.

Type: Cargo ship. MMSI: 245497000.

Date/timePositionNaut miles runAvg speedWind from/ knotsBaromVisibWave heightAir tempDewpointWater temp
2017-Dec-15 13:29N 53°27' W 003°01'0 0.0
2017-Dec-15 12:59N 53°27' W 003°01'0 0.0
2017-Dec-15 12:29N 53°27' W 003°01'0 0.0
2017-Dec-15 11:59N 53°27' W 003°01'0 0.0
2017-Dec-15 11:29N 53°27' W 003°01'0 0.0
2017-Dec-15 10:59N 53°27' W 003°01'0 0.0
2017-Dec-15 10:30N 53°27' W 003°01'0 0.9
2017-Dec-15 10:00N 53°26' W 003°01'0 0.0
2017-Dec-15 09:30N 53°26' W 003°01'0 0.9
2017-Dec-15 09:00N 53°26' W 003°01'0 0.0
2017-Dec-15 08:30N 53°26' W 003°01'2 3.4
2017-Dec-15 08:00N 53°27' W 003°03'4 8.7
2017-Dec-15 07:30N 53°31' W 003°07'5 9.4
2017-Dec-15 07:00N 53°31' W 003°15'4 8.4
2017-Dec-15 06:30N 53°31' W 003°22'2 4.7
2017-Dec-15 06:00N 53°31' W 003°26'3 6.8
2017-Dec-15 05:30N 53°31' W 003°31'4 7.2
2017-Dec-15 05:00N 53°31' W 003°37'4 7.6
2017-Dec-15 04:30N 53°30' W 003°44'4 8.9
2017-Dec-15 04:00N 53°28' W 003°50'78 2.4
2017-Dec-13 19:45N 53°21' W 006°01'4 9.1
2017-Dec-13 19:19N 53°21' W 006°08'3 0.7
2017-Dec-13 15:06N 53°21' W 006°13'0 0.0
2017-Dec-13 14:57N 53°21' W 006°13'0 0.0
2017-Dec-13 13:09N 53°21' W 006°13'0 0.0
2017-Dec-13 12:39N 53°21' W 006°13'0 0.0
2017-Dec-13 11:21N 53°21' W 006°13'0 0.0
2017-Dec-13 07:18N 53°21' W 006°13'0 0.0
2017-Dec-13 06:42N 53°21' W 006°13'0 0.0
2017-Dec-13 06:30N 53°21' W 006°13'2 3.8
2017-Dec-13 06:00N 53°21' W 006°09'5 8.1
2017-Dec-13 05:23N 53°21' W 006°01'4 9.2
2017-Dec-13 04:54N 53°26' W 005°59'44 9.7
2017-Dec-13 00:24N 54°06' W 005°32'4 9.8
2017-Dec-13 00:00N 54°10' W 005°30'5 9.7
2017-Dec-12 23:30N 54°15' W 005°27'5 9.4
2017-Dec-12 23:00N 54°19' W 005°24'5 9.2
2017-Dec-12 22:30N 54°23' W 005°21'4 8.8
2017-Dec-12 22:00N 54°28' W 005°21'4 8.9
2017-Dec-12 21:30N 54°32' W 005°22'4 8.9
2017-Dec-12 21:00N 54°36' W 005°24'5 9.2
2017-Dec-12 20:30N 54°41' W 005°25'5 9.6
2017-Dec-12 20:00N 54°45' W 005°30'510.3
2017-Dec-12 19:30N 54°50' W 005°34'610.7
2017-Dec-12 18:59N 54°54' W 005°39'3011.6
2017-Dec-12 16:25N 55°20' W 006°05'512.7
2017-Dec-12 16:00N 55°21' W 006°14'612.3
2017-Dec-12 15:30N 55°20' W 006°24'612.3
2017-Dec-12 15:00N 55°18' W 006°35'611.9
2017-Dec-12 14:30N 55°16' W 006°45'711.3
2017-Dec-12 13:54N 55°13' W 006°55'4 9.0
2017-Dec-12 13:30N 55°11' W 007°01'5 9.7
2017-Dec-12 12:59N 55°09' W 007°08'5 9.8
2017-Dec-12 12:29N 55°05' W 007°14'3 0.2
2017-Dec-11 21:38N 55°03' W 007°16'1 0.0
2017-Dec-10 13:24N 55°03' W 007°15'3 8.0
2017-Dec-10 13:00N 55°06' W 007°13'5 9.5
2017-Dec-10 12:30N 55°09' W 007°07'510.0
2017-Dec-10 12:00N 55°12' W 006°60'5 9.3
2017-Dec-10 11:27N 55°15' W 006°52'5 9.8
2017-Dec-10 10:59N 55°17' W 006°45'510.0
2017-Dec-10 10:30N 55°19' W 006°38'510.5
2017-Dec-10 10:01N 55°22' W 006°30'510.3
2017-Dec-10 09:30N 55°24' W 006°22'510.6
2017-Dec-10 09:00N 55°25' W 006°13'611.5
2017-Dec-10 08:30N 55°24' W 006°03'612.8
2017-Dec-10 08:00N 55°19' W 005°56'712.9
2017-Dec-10 07:30N 55°14' W 005°50'611.9
2017-Dec-10 06:59N 55°08' W 005°46'1311.1
2017-Dec-10 05:48N 54°56' W 005°36'311.3
2017-Dec-10 05:30N 54°53' W 005°33'510.6
2017-Dec-10 05:01N 54°49' W 005°27'5 9.3
2017-Dec-10 04:31N 54°45' W 005°24'5 9.5
2017-Dec-10 04:01N 54°40' W 005°23'5 9.5
2017-Dec-10 03:31N 54°35' W 005°22'5 9.6
2017-Dec-10 03:01N 54°31' W 005°21'5 9.4
2017-Dec-10 02:31N 54°26' W 005°20'5 9.3
2017-Dec-10 02:01N 54°21' W 005°21'5 9.6
2017-Dec-10 01:31N 54°17' W 005°21'510.0
2017-Dec-10 01:01N 54°12' W 005°22'510.2
2017-Dec-10 00:31N 54°07' W 005°23'106 9.3
2017-Dec-09 13:11N 52°21' W 005°42'211.5
2017-Dec-09 13:00N 52°19' W 005°42'145 7.1
2017-Dec-08 16:40N 49°56' W 005°07'23 9.3
2017-Dec-08 14:12N 50°00' W 004°32'2 9.1
2017-Dec-08 14:00N 50°01' W 004°29'7 9.2
2017-Dec-08 13:14N 50°02' W 004°18'18 8.2
2017-Dec-08 11:06N 50°07' W 003°52'1 7.5
2017-Dec-08 10:58N 50°07' W 003°51'3 7.3
2017-Dec-08 10:31N 50°08' W 003°46'3 7.0
2017-Dec-08 10:01N 50°09' W 003°40'3 6.6
2017-Dec-08 09:30N 50°10' W 003°35'3 6.2
2017-Dec-08 09:00N 50°12' W 003°31'3 6.4
2017-Dec-08 08:31N 50°13' W 003°27'3 6.9
2017-Dec-08 08:01N 50°15' W 003°22'4 7.1
2017-Dec-08 07:31N 50°16' W 003°17'4 7.5
2017-Dec-08 07:00N 50°18' W 003°11'4 7.6
2017-Dec-08 06:31N 50°18' W 003°06'4 7.9
2017-Dec-08 06:00N 50°19' W 002°59'4 8.4
2017-Dec-08 05:30N 50°20' W 002°53'4 8.6
2017-Dec-08 05:01N 50°20' W 002°46'5 9.3
2017-Dec-08 04:30N 50°20' W 002°39'6 9.8
2017-Dec-08 03:54N 50°20' W 002°30'86 6.7
2017-Dec-07 14:58N 49°37' W 000°33'4 9.1
2017-Dec-07 14:29N 49°35' W 000°27'4 9.1
2017-Dec-07 14:00N 49°34' W 000°21'4 9.0
2017-Dec-07 13:31N 49°32' W 000°15'4 8.5
2017-Dec-07 13:00N 49°30' W 000°09'4 8.2
2017-Dec-07 12:30N 49°29' W 000°03'4 8.8
2017-Dec-07 12:01N 49°27' E 000°03'4 8.9
2017-Dec-07 11:31N 49°26' E 000°10'4 8.2
2017-Dec-07 11:01N 49°26' E 000°16'3 6.6
2017-Dec-07 10:31N 49°26' E 000°21'3 5.4
2017-Dec-07 10:01N 49°27' E 000°25'3 5.7
2017-Dec-07 09:31N 49°29' E 000°29'5 9.9
2017-Dec-07 09:01N 49°26' E 000°35'510.4
2017-Dec-07 08:31N 49°30' E 000°40'4 8.2
2017-Dec-07 08:01N 49°30' E 000°46'510.0
2017-Dec-07 07:31N 49°25' E 000°48'3 5.1
2017-Dec-07 07:01N 49°27' E 000°51'3 6.3
2017-Dec-07 06:31N 49°28' E 000°56'611.3
2017-Dec-07 06:01N 49°22' E 000°55'4 7.7
2017-Dec-07 05:31N 49°23' E 001°01'1 2.4
2017-Dec-07 05:00N 49°25' E 001°01'0 0.0
2017-Dec-07 04:28N 49°25' E 001°01'0 0.0
2017-Dec-07 03:58N 49°25' E 001°01'0 0.0
2017-Dec-07 03:28N 49°25' E 001°01'0 0.0
2017-Dec-07 02:58N 49°25' E 001°01'0 0.0
2017-Dec-07 02:28N 49°25' E 001°01'0 0.0
2017-Dec-07 01:58N 49°25' E 001°01'0 0.0
2017-Dec-07 01:28N 49°25' E 001°01'0 0.0
2017-Dec-07 00:58N 49°25' E 001°01'0 0.0
2017-Dec-07 00:28N 49°25' E 001°01'0 0.0
2017-Dec-06 23:58N 49°25' E 001°01'0 0.0
2017-Dec-06 23:28N 49°25' E 001°01'0 0.0
2017-Dec-06 22:55N 49°25' E 001°01'0 0.0
2017-Dec-06 22:28N 49°25' E 001°01'0 0.0
2017-Dec-06 21:58N 49°25' E 001°01'0 0.0
2017-Dec-06 21:28N 49°25' E 001°01'0 0.0
2017-Dec-06 20:58N 49°25' E 001°01'  
Track history (hours):
 
Tides and Currents Weather Stations Pressure Air Temp Water Temp Dewpoint Dewpoint Depression Visibility Wind Speed Wind Dir Waves Ship Positions

Eems Dollard

Last reported at 2017-Dec-15 13:29 UTC. Time now 2017-Dec-15 13:47 UTC.
Position N 53°27' W 003°01'.

Length 89 m; draft 4.4 m.

Type: Cargo ship. MMSI: 245497000.

Date/timePositionNaut miles runAvg speedWind from/ knotsBaromVisibWave heightAir tempDewpointWater temp
2017-Dec-15 13:29N 53°27' W 003°01'0 0.0
2017-Dec-15 12:59N 53°27' W 003°01'0 0.0
2017-Dec-15 12:29N 53°27' W 003°01'0 0.0
2017-Dec-15 11:59N 53°27' W 003°01'0 0.0
2017-Dec-15 11:29N 53°27' W 003°01'0 0.0
2017-Dec-15 10:59N 53°27' W 003°01'0 0.0
2017-Dec-15 10:30N 53°27' W 003°01'0 0.9
2017-Dec-15 10:00N 53°26' W 003°01'0 0.0
2017-Dec-15 09:30N 53°26' W 003°01'0 0.9
2017-Dec-15 09:00N 53°26' W 003°01'0 0.0
2017-Dec-15 08:30N 53°26' W 003°01'2 3.4
2017-Dec-15 08:00N 53°27' W 003°03'4 8.7
2017-Dec-15 07:30N 53°31' W 003°07'5 9.4
2017-Dec-15 07:00N 53°31' W 003°15'4 8.4
2017-Dec-15 06:30N 53°31' W 003°22'2 4.7
2017-Dec-15 06:00N 53°31' W 003°26'3 6.8
2017-Dec-15 05:30N 53°31' W 003°31'4 7.2
2017-Dec-15 05:00N 53°31' W 003°37'4 7.6
2017-Dec-15 04:30N 53°30' W 003°44'4 8.9
2017-Dec-15 04:00N 53°28' W 003°50'78 2.4
2017-Dec-13 19:45N 53°21' W 006°01'4 9.1
2017-Dec-13 19:19N 53°21' W 006°08'3 0.7
2017-Dec-13 15:06N 53°21' W 006°13'0 0.0
2017-Dec-13 14:57N 53°21' W 006°13'0 0.0
2017-Dec-13 13:09N 53°21' W 006°13'0 0.0
2017-Dec-13 12:39N 53°21' W 006°13'0 0.0
2017-Dec-13 11:21N 53°21' W 006°13'0 0.0
2017-Dec-13 07:18N 53°21' W 006°13'0 0.0
2017-Dec-13 06:42N 53°21' W 006°13'0 0.0
2017-Dec-13 06:30N 53°21' W 006°13'2 3.8
2017-Dec-13 06:00N 53°21' W 006°09'5 8.1
2017-Dec-13 05:23N 53°21' W 006°01'4 9.2
2017-Dec-13 04:54N 53°26' W 005°59'44 9.7
2017-Dec-13 00:24N 54°06' W 005°32'4 9.8
2017-Dec-13 00:00N 54°10' W 005°30'5 9.7
2017-Dec-12 23:30N 54°15' W 005°27'5 9.4
2017-Dec-12 23:00N 54°19' W 005°24'5 9.2
2017-Dec-12 22:30N 54°23' W 005°21'4 8.8
2017-Dec-12 22:00N 54°28' W 005°21'4 8.9
2017-Dec-12 21:30N 54°32' W 005°22'4 8.9
2017-Dec-12 21:00N 54°36' W 005°24'5 9.2
2017-Dec-12 20:30N 54°41' W 005°25'5 9.6
2017-Dec-12 20:00N 54°45' W 005°30'510.3
2017-Dec-12 19:30N 54°50' W 005°34'610.7
2017-Dec-12 18:59N 54°54' W 005°39'3011.6
2017-Dec-12 16:25N 55°20' W 006°05'512.7
2017-Dec-12 16:00N 55°21' W 006°14'612.3
2017-Dec-12 15:30N 55°20' W 006°24'612.3
2017-Dec-12 15:00N 55°18' W 006°35'611.9
2017-Dec-12 14:30N 55°16' W 006°45'711.3
2017-Dec-12 13:54N 55°13' W 006°55'4 9.0
2017-Dec-12 13:30N 55°11' W 007°01'5 9.7
2017-Dec-12 12:59N 55°09' W 007°08'5 9.8
2017-Dec-12 12:29N 55°05' W 007°14'3 0.2
2017-Dec-11 21:38N 55°03' W 007°16'1 0.0
2017-Dec-10 13:24N 55°03' W 007°15'3 8.0
2017-Dec-10 13:00N 55°06' W 007°13'5 9.5
2017-Dec-10 12:30N 55°09' W 007°07'510.0
2017-Dec-10 12:00N 55°12' W 006°60'5 9.3
2017-Dec-10 11:27N 55°15' W 006°52'5 9.8
2017-Dec-10 10:59N 55°17' W 006°45'510.0
2017-Dec-10 10:30N 55°19' W 006°38'510.5
2017-Dec-10 10:01N 55°22' W 006°30'510.3
2017-Dec-10 09:30N 55°24' W 006°22'510.6
2017-Dec-10 09:00N 55°25' W 006°13'611.5
2017-Dec-10 08:30N 55°24' W 006°03'612.8
2017-Dec-10 08:00N 55°19' W 005°56'712.9
2017-Dec-10 07:30N 55°14' W 005°50'611.9
2017-Dec-10 06:59N 55°08' W 005°46'1311.1
2017-Dec-10 05:48N 54°56' W 005°36'311.3
2017-Dec-10 05:30N 54°53' W 005°33'510.6
2017-Dec-10 05:01N 54°49' W 005°27'5 9.3
2017-Dec-10 04:31N 54°45' W 005°24'5 9.5
2017-Dec-10 04:01N 54°40' W 005°23'5 9.5
2017-Dec-10 03:31N 54°35' W 005°22'5 9.6
2017-Dec-10 03:01N 54°31' W 005°21'5 9.4
2017-Dec-10 02:31N 54°26' W 005°20'5 9.3
2017-Dec-10 02:01N 54°21' W 005°21'5 9.6
2017-Dec-10 01:31N 54°17' W 005°21'510.0
2017-Dec-10 01:01N 54°12' W 005°22'510.2
2017-Dec-10 00:31N 54°07' W 005°23'106 9.3
2017-Dec-09 13:11N 52°21' W 005°42'211.5
2017-Dec-09 13:00N 52°19' W 005°42'145 7.1
2017-Dec-08 16:40N 49°56' W 005°07'23 9.3
2017-Dec-08 14:12N 50°00' W 004°32'2 9.1
2017-Dec-08 14:00N 50°01' W 004°29'7 9.2
2017-Dec-08 13:14N 50°02' W 004°18'18 8.2
2017-Dec-08 11:06N 50°07' W 003°52'1 7.5
2017-Dec-08 10:58N 50°07' W 003°51'3 7.3
2017-Dec-08 10:31N 50°08' W 003°46'3 7.0
2017-Dec-08 10:01N 50°09' W 003°40'3 6.6
2017-Dec-08 09:30N 50°10' W 003°35'3 6.2
2017-Dec-08 09:00N 50°12' W 003°31'3 6.4
2017-Dec-08 08:31N 50°13' W 003°27'3 6.9
2017-Dec-08 08:01N 50°15' W 003°22'4 7.1
2017-Dec-08 07:31N 50°16' W 003°17'4 7.5
2017-Dec-08 07:00N 50°18' W 003°11'4 7.6
2017-Dec-08 06:31N 50°18' W 003°06'4 7.9
2017-Dec-08 06:00N 50°19' W 002°59'4 8.4
2017-Dec-08 05:30N 50°20' W 002°53'4 8.6
2017-Dec-08 05:01N 50°20' W 002°46'5 9.3
2017-Dec-08 04:30N 50°20' W 002°39'6 9.8
2017-Dec-08 03:54N 50°20' W 002°30'86 6.7
2017-Dec-07 14:58N 49°37' W 000°33'4 9.1
2017-Dec-07 14:29N 49°35' W 000°27'4 9.1
2017-Dec-07 14:00N 49°34' W 000°21'4 9.0
2017-Dec-07 13:31N 49°32' W 000°15'4 8.5
2017-Dec-07 13:00N 49°30' W 000°09'4 8.2
2017-Dec-07 12:30N 49°29' W 000°03'4 8.8
2017-Dec-07 12:01N 49°27' E 000°03'4 8.9
2017-Dec-07 11:31N 49°26' E 000°10'4 8.2
2017-Dec-07 11:01N 49°26' E 000°16'3 6.6
2017-Dec-07 10:31N 49°26' E 000°21'3 5.4
2017-Dec-07 10:01N 49°27' E 000°25'3 5.7
2017-Dec-07 09:31N 49°29' E 000°29'5 9.9
2017-Dec-07 09:01N 49°26' E 000°35'510.4
2017-Dec-07 08:31N 49°30' E 000°40'4 8.2
2017-Dec-07 08:01N 49°30' E 000°46'510.0
2017-Dec-07 07:31N 49°25' E 000°48'3 5.1
2017-Dec-07 07:01N 49°27' E 000°51'3 6.3
2017-Dec-07 06:31N 49°28' E 000°56'611.3
2017-Dec-07 06:01N 49°22' E 000°55'4 7.7
2017-Dec-07 05:31N 49°23' E 001°01'1 2.4
2017-Dec-07 05:00N 49°25' E 001°01'0 0.0
2017-Dec-07 04:28N 49°25' E 001°01'0 0.0
2017-Dec-07 03:58N 49°25' E 001°01'0 0.0
2017-Dec-07 03:28N 49°25' E 001°01'0 0.0
2017-Dec-07 02:58N 49°25' E 001°01'0 0.0
2017-Dec-07 02:28N 49°25' E 001°01'0 0.0
2017-Dec-07 01:58N 49°25' E 001°01'0 0.0
2017-Dec-07 01:28N 49°25' E 001°01'0 0.0
2017-Dec-07 00:58N 49°25' E 001°01'0 0.0
2017-Dec-07 00:28N 49°25' E 001°01'0 0.0
2017-Dec-06 23:58N 49°25' E 001°01'0 0.0
2017-Dec-06 23:28N 49°25' E 001°01'0 0.0
2017-Dec-06 22:55N 49°25' E 001°01'0 0.0
2017-Dec-06 22:28N 49°25' E 001°01'0 0.0
2017-Dec-06 21:58N 49°25' E 001°01'0 0.0
2017-Dec-06 21:28N 49°25' E 001°01'0 0.0
2017-Dec-06 20:58N 49°25' E 001°01'  

Dump ship's entire track history